Weather at Fort Lauderdale Hollywood International Airport

Public forecast

Using degrees Fahrenheit for public forecast. Weather courtesy of forecast.io.

Current aviation weather report (METAR) for Fort Lauderdale Hollywood International Airport

Retrieved 2020/11/28 17:53 UTC (1 hour ago):

KFLL 281753Z 17004KT 10SM SCT028 BKN048 26/20 A3001 RMK AO2 SLP162 CB OHD MOV S VCSH SW-W T02560200 10267 20211 58019

Aviation forecast (TAF) for Fort Lauderdale Hollywood International Airport

Retrieved 2020/11/28 18:51 UTC (9 minutes ago):

TAF KFLL 281745Z 2818/2924 12007KT P6SM SCT030 BKN050 FM290000 VRB03KT P6SM FEW030 SCT250 FM291000 VRB03KT P6SM SCT025 BKN050 FM291800 14008KT P6SM BKN100